Weather observations for the past three days for
Montevideo-Chippewa County Airport
Imperial (Metric)
Date Time (cdt) Wind (mph) Vis. (mi.) Weather Sky Cond. Temperature (ºF) Relative Humidity Wind Chill (°F) Heat Index (°F) Pressure Precipitation (in)
Air Dwpt 6 hour altimeter (in) sea level (mb) 1 hr 3 hr 6 hr
Max. Min.
09 17:35 N 21 G 26 10.00 Fair and Breezy CLR 59 26.6 29% 29.92 0.0
09 17:15 NW 20 G 23 10.00 Fair CLR 60.8 26.6 27% 29.91 0.0
09 16:55 N 20 G 28 10.00 Fair CLR 59 26.6 29% 29.91 0.0
09 16:35 N 21 G 26 10.00 Fair and Breezy CLR 59 26.6 29% 29.91 0.0
09 16:15 NW 15 G 25 10.00 Fair CLR 60.8 26.6 27% 29.91 0.0
09 15:55 N 15 G 23 10.00 Fair CLR 60.8 28.4 29% 29.91 0.0
09 15:35 N 20 G 26 10.00 Fair CLR 59 26.6 29% 29.91 0.0
09 15:15 N 23 G 28 10.00 Fair and Breezy CLR 59 26.6 29% 29.91 0.0
09 14:55 N 25 G 30 10.00 Fair and Breezy CLR 57.2 26.6 31% 29.9 0.0
09 14:35 N 23 G 33 10.00 Fair and Breezy CLR 57.2 26.6 31% 29.9 0.0
09 14:15 N 26 G 35 10.00 Fair and Windy CLR 57.2 28.4 33% 29.89 0.0
09 13:55 N 22 G 28 10.00 Fair and Breezy CLR 59 28.4 31% 29.89 0.0
09 13:35 N 20 G 30 10.00 Fair CLR 57.2 28.4 33% 29.89 0.0
09 13:15 N 21 G 32 10.00 Fair and Breezy CLR 57.2 28.4 33% 29.88 0.0
09 12:55 N 21 G 32 10.00 Fair and Breezy CLR 57.2 28.4 33% 29.88 0.0
09 12:35 N 24 G 31 10.00 Fair and Breezy CLR 57.2 28.4 33% 29.88 0.0
09 12:15 N 21 G 30 10.00 Fair and Breezy CLR 57.2 30.2 36% 29.87 0.0
09 11:55 N 25 G 36 10.00 Fair and Breezy CLR 57.2 28.4 33% 29.87 0.0
09 11:35 N 20 G 28 10.00 Fair CLR 57.2 28.4 33% 29.86 0.0
09 11:15 N 20 G 26 10.00 Fair CLR 55.4 28.4 36% 29.85 0.0
09 10:55 N 16 G 26 10.00 Fair CLR 55.4 30.2 38% 29.85 0.0
09 10:35 N 21 G 26 10.00 Fair and Breezy CLR 55.4 30.2 38% 29.84 0.0
09 10:15 NW 17 G 24 10.00 Fair CLR 55.4 33.8 44% 29.83 0.0
09 09:55 N 18 G 24 10.00 Fair CLR 53.6 33.8 47% 29.83 0.0
09 09:35 N 18 G 25 10.00 Fair CLR 53.6 35.6 51% 29.82 0.0
09 09:15 N 16 10.00 Fair CLR 51.8 37.4 58% 29.82 0.0
09 08:55 N 17 10.00 Fair CLR 51.8 37.4 58% 29.81 0.0
09 08:35 N 20 10.00 Fair CLR 50 39.2 67% 44 29.8 0.0
09 08:15 N 16 G 26 10.00 Fair CLR 48.2 39.2 71% 43 29.79 0.0
09 07:55 N 14 G 21 10.00 Fair CLR 48.2 42.8 82% 43 29.78 0.0
09 07:35 N 9 10.00 Fair CLR 48.2 42.8 82% 45 29.77 0.0
09 07:15 N 14 G 17 10.00 Fair CLR 46.4 42.8 87% 41 29.76 0.0
09 06:55 NW 12 G 18 10.00 Fair CLR 46.4 42.8 87% 42 29.75 0.0
09 06:35 NW 13 10.00 Partly Cloudy SCT012 46.4 42.8 87% 41 29.74 0.0
09 06:15 NW 13 G 23 10.00 Partly Cloudy SCT014 48.2 44.6 87% 43 29.72 0.0
09 05:55 NW 14 G 18 10.00 Fair CLR 48.2 44.6 87% 43 29.71 0.0
09 05:35 NW 9 10.00 Fair CLR 48.2 46.4 94% 45 29.69 0.0
09 05:15 NW 9 10.00 Partly Cloudy SCT029 50 46.4 88% 47 29.69 0.0
09 04:55 W 7 10.00 Partly Cloudy SCT050 SCT060 SCT080 50 46.4 88% 48 29.69 0.0
09 04:35 W 5 10.00 Light Rain SCT046 BKN055 50 46.4 88% 49 29.68 0.0
09 04:15 W 5 10.00 Light Rain OVC055 51.8 44.6 77% 29.67 0.0
09 03:55 N 7 10.00 Rain SCT044 BKN075 OVC090 51.8 42.8 72% 29.68 0.0
09 03:35 N 6 10.00 Mostly Cloudy BKN100 50 41 71% 48 29.67 0.0
09 03:15 NW 7 10.00 Mostly Cloudy BKN100 50 39.2 67% 48 29.67 0.0
09 02:55 NW 8 10.00 Mostly Cloudy BKN110 48.2 33.8 58% 45 29.67 0.0
09 02:35 NW 6 10.00 Partly Cloudy SCT120 48.2 33.8 58% 46 29.64 0.0
09 02:15 N 6 10.00 Fair CLR 50 33.8 54% 48 29.63 0.0
09 01:55 N 5 G 10 10.00 Fair CLR 50 33.8 54% 49 29.63 0.0
09 01:35 Calm 10.00 Partly Cloudy SCT110 51.8 30.2 44% 29.61 0.0
09 01:15 SW 3 10.00 Partly Cloudy SCT110 51.8 30.2 44% 29.62 0.0
09 00:55 SW 5 10.00 Fair CLR 51.8 30.2 44% 29.62 0.0
09 00:35 SW 7 10.00 Fair CLR 51.8 32 47% 29.62 0.0
09 00:15 SW 7 10.00 Fair CLR 53.6 32 44% 29.62 0.0
08 23:55 SW 8 10.00 Fair CLR 53.6 32 44% 29.63 0.0
08 23:35 SW 8 10.00 Fair CLR 55.4 30.2 38% 29.64 0.0
08 23:15 SW 6 10.00 Fair CLR 53.6 32 44% 29.65 0.0
08 22:55 SW 5 10.00 Fair CLR 55.4 32 41% 29.65 0.0
08 22:35 SW 3 10.00 Fair CLR 55.4 30.2 38% 29.66 0.0
08 22:15 W 3 10.00 Fair CLR 57.2 30.2 36% 29.67 0.0
08 21:55 W 3 10.00 Fair CLR 59 30.2 34% 29.66 0.0
08 21:35 W 3 10.00 Fair CLR 60.8 30.2 31% 29.67 0.0
08 21:15 NW 5 10.00 Fair CLR 60.8 30.2 31% 29.67 0.0
08 20:55 NW 5 10.00 Fair CLR 60.8 30.2 31% 29.66 0.0
08 20:35 NW 9 10.00 Fair CLR 62.6 30.2 30% 29.67 0.0
08 20:15 N 13 0.00 Fair CLR 64.4 30.2 28% 29.66 0.0
08 19:55 N 16 10.00 Fair CLR 64.4 30.2 28% 29.66 0.0
08 19:35 N 15 G 31 10.00 Fair CLR 66.2 30.2 26% 29.66 0.0
08 19:15 NW 20 G 24 10.00 Fair CLR 68 30.2 24% 29.65 0.0
08 18:55 NW 21 10.00 Fair and Breezy CLR 68 30.2 24% 29.65 0.0
08 18:35 NW 18 G 30 10.00 Fair CLR 69.8 30.2 23% 29.65 0.0
08 18:15 NW 15 G 32 10.00 Fair CLR 69.8 28.4 21% 29.65 0.0
08 17:55 NW 18 G 28 10.00 Fair CLR 71.6 28.4 20% 29.64 0.0
08 17:35 NW 23 G 32 10.00 Fair and Breezy CLR 71.6 28.4 20% 29.63 0.0
08 17:15 NW 25 G 33 10.00 Fair and Breezy CLR 71.6 30.2 22% 29.63 0.0
08 16:55 NW 17 G 32 10.00 Fair CLR 71.6 30.2 22% 29.63 0.0
08 16:35 NW 17 G 33 10.00 Partly Cloudy SCT110 73.4 32 22% 29.62 0.0
08 16:15 NW 21 G 30 10.00 Fair and Breezy CLR 71.6 32 23% 29.62 0.0
08 15:55 NW 15 G 28 10.00 Fair CLR 71.6 32 23% 29.63 0.0
08 15:35 NW 22 G 28 10.00 Fair and Breezy CLR 73.4 32 22% 29.63 0.0
08 15:15 NW 17 G 29 10.00 Fair CLR 71.6 32 23% 29.64 0.0
08 14:55 NW 22 G 31 10.00 Fair and Breezy CLR 71.6 32 23% 29.64 0.0
08 14:35 NW 23 G 32 10.00 Fair and Breezy CLR 73.4 33.8 23% 29.64 0.0
08 14:15 NW 15 G 21 10.00 Fair CLR 71.6 33.8 25% 29.65 0.0
08 13:55 W 16 G 28 10.00 Partly Cloudy SCT100 71.6 32 23% 29.66 0.0
08 13:35 W 16 G 23 10.00 Fair CLR 71.6 33.8 25% 29.66 0.0
08 13:15 W 13 G 24 10.00 Fair CLR 71.6 32 23% 29.66 0.0
08 12:55 W 14 G 24 10.00 Fair CLR 71.6 30.2 22% 29.67 0.0
08 12:35 W 13 G 24 10.00 Fair CLR 69.8 28.4 21% 29.68 0.0
08 12:15 W 8 G 20 10.00 Fair CLR 71.6 28.4 20% 29.69 0.0
08 11:55 W 7 10.00 Fair CLR 69.8 28.4 21% 29.7 0.0
08 11:35 W 8 10.00 Fair CLR 69.8 30.2 23% 29.7 0.0
08 11:15 NW 3 10.00 Fair CLR 68 30.2 24% 29.71 0.0
08 10:55 NW 5 10.00 Fair CLR 66.2 30.2 26% 29.72 0.0
08 10:35 W 5 10.00 Fair CLR 64.4 30.2 28% 29.73 0.0
08 10:15 W 6 10.00 Fair CLR 62.6 30.2 30% 29.74 0.0
08 09:55 W 6 10.00 Fair CLR 60.8 30.2 31% 29.75 0.0
08 09:35 W 5 10.00 Fair CLR 59 30.2 34% 29.75 0.0
08 09:15 W 5 10.00 Fair CLR 57.2 28.4 33% 29.76 0.0
08 08:55 NW 3 10.00 Fair CLR 53.6 28.4 38% 29.76 0.0
08 08:35 NW 5 10.00 Fair CLR 51.8 28.4 41% 29.76 0.0
08 08:15 NW 3 10.00 Fair CLR 51.8 30.2 44% 29.77 0.0
08 07:55 Calm 10.00 Fair CLR 48.2 28.4 46% 29.77 0.0
08 07:35 Calm 10.00 Partly Cloudy SCT100 46.4 26.6 46% 29.76 0.0
08 07:15 SW 3 10.00 Mostly Cloudy BKN100 46.4 26.6 46% 29.76 0.0
08 06:55 SW 5 10.00 Mostly Cloudy BKN100 44.6 26.6 49% 43 29.76 0.0
08 06:35 SW 6 10.00 Overcast OVC100 44.6 26.6 49% 42 29.76 0.0
08 06:15 SW 6 10.00 Partly Cloudy SCT100 44.6 24.8 46% 42 29.75 0.0
08 05:55 SW 5 10.00 Partly Cloudy SCT110 44.6 24.8 46% 43 29.76 0.0
08 05:35 SW 5 10.00 Fair CLR 44.6 24.8 46% 43 29.76 0.0
08 05:15 SW 7 10.00 Fair CLR 44.6 24.8 46% 41 29.76 0.0
08 04:55 SW 8 10.00 Fair CLR 44.6 24.8 46% 41 29.76 0.0
08 04:35 SW 6 10.00 Fair CLR 44.6 24.8 46% 42 29.76 0.0
08 04:15 SW 7 10.00 Fair CLR 44.6 24.8 46% 41 29.76 0.0
08 03:55 SW 7 10.00 Fair CLR 44.6 24.8 46% 41 29.76 0.0
08 03:35 SW 9 10.00 Fair CLR 46.4 24.8 43% 42 29.77 0.0
08 03:15 SW 8 10.00 Fair CLR 46.4 24.8 43% 43 29.77 0.0
08 02:55 SW 8 10.00 Fair CLR 46.4 24.8 43% 43 29.77 0.0
08 02:35 SW 7 10.00 Fair CLR 46.4 24.8 43% 43 29.78 0.0
08 02:15 SW 8 10.00 Fair CLR 46.4 24.8 43% 43 29.78 0.0
08 01:55 SW 10 10.00 Fair CLR 46.4 24.8 43% 42 29.78 0.0
08 01:35 SW 8 10.00 Fair CLR 46.4 24.8 43% 43 29.79 0.0
08 01:15 SW 8 10.00 Fair CLR 46.4 26.6 46% 43 29.79 0.0
08 00:55 S 7 10.00 Fair CLR 44.6 24.8 46% 41 29.79 0.0
08 00:35 S 6 10.00 Fair CLR 46.4 24.8 43% 44 29.79 0.0
08 00:15 S 6 10.00 Fair CLR 48.2 24.8 40% 46 29.79 0.0
07 23:55 S 6 10.00 Fair CLR 48.2 24.8 40% 46 29.8 0.0
07 23:35 S 6 10.00 Fair CLR 48.2 24.8 40% 46 29.8 0.0
07 23:15 S 5 10.00 Fair CLR 48.2 24.8 40% 47 29.81 0.0
07 22:55 SW 5 10.00 Fair CLR 50 24.8 37% 49 29.81 0.0
07 22:35 SW 3 10.00 Fair CLR 50 24.8 37% 29.81 0.0
07 22:15 SW 3 10.00 Fair CLR 50 24.8 37% 29.81 0.0
07 21:55 Calm 10.00 Fair CLR 51.8 24.8 35% 29.81 0.0
07 21:35 Calm 10.00 Fair CLR 51.8 24.8 35% 29.82 0.0
07 21:15 Calm 10.00 Fair CLR 53.6 24.8 33% 29.81 0.0
07 20:55 Calm 10.00 Fair CLR 55.4 24.8 31% 29.81 0.0
07 20:35 NW 3 10.00 Fair CLR 55.4 24.8 31% 29.81 0.0
07 20:15 NW 5 10.00 Fair CLR 57.2 24.8 29% 29.81 0.0
07 19:55 NW 7 10.00 Fair CLR 57.2 24.8 29% 29.8 0.0
07 19:35 NW 10 10.00 Fair CLR 59 23 25% 29.8 0.0
07 19:15 N 9 10.00 Fair CLR 60.8 23 23% 29.8 0.0
07 18:55 NW 9 10.00 Fair CLR 60.8 21.2 22% 29.8 0.0
07 18:35 NW 13 10.00 Fair CLR 60.8 23 23% 29.8 0.0
07 18:15 NW 12 10.00 Fair CLR 60.8 21.2 22% 29.81 0.0
07 17:55 N 12 10.00 Fair CLR 60.8 21.2 22% 29.81 0.0
07 17:35 NW 8 10.00 Fair CLR 60.8 23 23% 29.81 0.0
07 17:15 NW 14 G 21 10.00 Fair CLR 60.8 23 23% 29.81 0.0
07 16:55 NW 16 G 21 10.00 Fair CLR 62.6 23 22% 29.81 0.0
07 16:35 NW 16 10.00 Fair CLR 62.6 23 22% 29.82 0.0
07 16:15 NW 9 G 21 10.00 Fair CLR 60.8 23 23% 29.82 0.0
07 15:55 Calm 10.00 Fair CLR 59 24.8 27% 29.83 0.0
07 15:35 W 9 10.00 Fair CLR 60.8 24.8 25% 29.83 0.0
07 15:15 N 12 G 17 10.00 Fair CLR 60.8 24.8 25% 29.84 0.0
07 14:55 NW 14 G 17 10.00 Fair CLR 59 23 25% 29.84 0.0
07 14:35 NW 9 10.00 Fair CLR 59 23 25% 29.85 0.0
07 14:15 N 7 10.00 Fair CLR 57.2 23 27% 29.85 0.0
07 13:55 W 3 10.00 Fair CLR 57.2 24.8 29% 29.86 0.0
07 13:35 NW 10 G 16 10.00 Fair CLR 57.2 24.8 29% 29.86 0.0
07 13:15 W 7 G 10 10.00 Fair CLR 57.2 24.8 29% 29.87 0.0
07 12:55 N 12 G 17 10.00 Fair CLR 55.4 24.8 31% 29.87 0.0
07 12:35 N 9 10.00 Fair CLR 55.4 23 28% 29.88 0.0
07 12:15 N 10 G 16 10.00 Fair CLR 55.4 24.8 31% 29.89 0.0
07 11:55 NW 9 10.00 Fair CLR 55.4 24.8 31% 29.89 0.0
07 11:35 W 6 10.00 Fair CLR 53.6 24.8 33% 29.89 0.0
07 11:15 NW 6 10.00 Fair CLR 53.6 23 30% 29.9 0.0
07 10:55 Calm 10.00 Fair CLR 51.8 21.2 30% 29.9 0.0
07 10:35 Calm 10.00 Fair CLR 51.8 21.2 30% 29.9 0.0
07 10:15 E 3 10.00 Fair CLR 51.8 21.2 30% 29.9 0.0
07 09:55 SE 3 10.00 Fair CLR 50 24.8 37% 29.9 0.0
07 09:35 S 3 10.00 Fair CLR 48.2 24.8 40% 29.9 0.0
07 09:15 Calm 10.00 Fair CLR 48.2 26.6 43% 29.91 0.0
07 08:55 S 5 10.00 Fair CLR 46.4 28.4 50% 45 29.9 0.0
07 08:35 S 3 10.00 Fair CLR 44.6 28.4 53% 29.9 0.0
07 08:15 S 5 10.00 Fair CLR 42.8 26.6 53% 41 29.9 0.0
07 07:55 S 6 10.00 Fair CLR 42.8 28.4 57% 40 29.9 0.0
07 07:35 S 6 10.00 Fair CLR 39.2 28.4 65% 36 29.9 0.0
07 07:15 Calm 10.00 Fair CLR 35.6 26.6 70% 29.9 0.0
07 06:55 Calm 10.00 Fair CLR 33.8 26.6 75% 29.9 0.0
07 06:35 S 3 10.00 Fair CLR 33.8 26.6 75% 29.9 0.0
07 06:15 Calm 10.00 Fair CLR 33.8 26.6 75% 29.91 0.0
07 05:55 Calm 10.00 Fair CLR 33.8 26.6 75% 29.9 0.0
07 05:35 S 5 10.00 Fair CLR 35.6 24.8 65% 32 29.9 0.0
07 05:15 S 6 10.00 Fair CLR 35.6 24.8 65% 31 29.91 0.0
07 04:55 S 5 10.00 Fair CLR 35.6 24.8 65% 32 29.91 0.0
07 04:35 S 3 10.00 Partly Cloudy SCT070 35.6 24.8 65% 29.91 0.0
07 04:15 S 5 10.00 Mostly Cloudy BKN070 35.6 24.8 65% 32 29.92 0.0
07 03:55 S 5 10.00 Partly Cloudy SCT070 35.6 24.8 65% 32 29.92 0.0
07 03:35 S 3 10.00 Partly Cloudy SCT080 35.6 24.8 65% 29.93 0.0
07 03:15 S 5 10.00 Mostly Cloudy SCT080 BKN090 35.6 24.8 65% 32 29.93 0.0
07 02:55 S 3 10.00 Mostly Cloudy BKN090 33.8 24.8 70% 29.93 0.0
07 02:35 S 5 10.00 Partly Cloudy SCT090 SCT110 35.6 24.8 65% 32 29.93 0.0
07 02:15 S 5 10.00 Mostly Cloudy BKN090 BKN110 35.6 24.8 65% 32 29.94 0.0
07 01:55 S 5 10.00 Mostly Cloudy BKN090 33.8 24.8 70% 30 29.94 0.0
07 01:35 S 5 10.00 Partly Cloudy SCT090 33.8 26.6 75% 30 29.95 0.0
07 01:15 SE 5 10.00 Fair CLR 33.8 24.8 70% 30 29.95 0.0
07 00:55 SE 5 10.00 Fair CLR 33.8 24.8 70% 30 29.96 0.0
07 00:35 Calm 10.00 Fair CLR 35.6 24.8 65% 29.96 0.0
07 00:15 Calm 10.00 Fair CLR 35.6 23 60% 29.97 0.0
06 23:55 Calm 10.00 Fair CLR 33.8 21.2 60% 29.97 0.0
06 23:35 Calm 10.00 Fair CLR 35.6 21.2 56% 29.98 0.0
06 23:15 Calm 10.00 Fair CLR 35.6 21.2 56% 29.98 0.0
06 22:55 Calm 10.00 Fair CLR 35.6 21.2 56% 29.98 0.0
06 22:35 Calm 10.00 Fair CLR 35.6 21.2 56% 29.98 0.0
06 22:15 Calm 10.00 Fair CLR 37.4 21.2 52% 29.98 0.0
06 21:55 NE 3 10.00 Fair CLR 37.4 23 56% 29.98 0.0
06 21:35 NE 3 10.00 Fair CLR 39.2 21.2 48% 29.98 0.0
06 21:15 N 5 10.00 Fair CLR 39.2 23 52% 36 29.98 0.0
06 20:55 N 3 10.00 Fair CLR 41 23 49% 29.97 0.0
06 20:35 N 5 10.00 Fair CLR 42.8 23 46% 41 29.97 0.0
06 20:15 N 7 10.00 Fair CLR 44.6 24.8 46% 41 29.97 0.0
06 19:55 NW 9 10.00 Fair CLR 46.4 23 40% 42 29.97 0.0
06 19:35 NW 6 10.00 Partly Cloudy SCT080 46.4 23 40% 44 29.97 0.0
06 19:15 N 10 10.00 Mostly Cloudy BKN080 46.4 23 40% 42 29.98 0.0
06 18:55 N 10 10.00 Mostly Cloudy BKN080 46.4 24.8 43% 42 29.98 0.0
06 18:35 NW 14 10.00 Mostly Cloudy BKN080 46.4 23 40% 41 29.98 0.0
06 18:15 NW 12 G 16 10.00 Mostly Cloudy BKN070 48.2 23 37% 44 29.99 0.0
06 17:55 NW 10 G 18 10.00 Partly Cloudy SCT070 48.2 24.8 40% 44 29.99 0.0
Date Time (cdt) Wind (mph) Vis. (mi.) Weather Sky Cond. Air Dwpt Max. Min. Relative Humidity Wind Chill (°F) Heat Index (°F) altimeter (in) sea level (mb) 1 hr 3 hr 6 hr
6 hour
Temperature (ºF) Pressure Precipitation (in)